Time;durP1;ratioP1;P1;durP2;ratioP2;P2;SDS_P1;SDS_P2;PMS_P1;PMS_P2;Temp;Humidity;BMP_temperature;BMP_pressure;BME280_temperature;BME280_humidity;BME280_pressure;Samples;Min_cycle;Max_cycle;Signal;HPM_P1;HPM_P2
2023/11/07 00:01:42;;;;;;;17.48;4.35;;;;;;;6.75;100.00;100416.56;5067812;28;20060;-53
2023/11/07 00:04:11;;;;;;;12.10;3.80;;;;;;;6.75;100.00;100413.94;5058646;28;20036;-52
2023/11/07 00:06:40;;;;;;;11.55;3.55;;;;;;;6.79;100.00;100412.84;5068712;28;20055;-53
2023/11/07 00:09:08;;;;;;;12.00;3.90;;;;;;;6.80;100.00;100413.66;5056931;28;20045;-54
2023/11/07 00:11:37;;;;;;;10.65;4.07;;;;;;;6.84;100.00;100420.41;5053266;28;20059;-53
2023/11/07 00:14:10;;;;;;;12.05;3.80;;;;;;;6.80;100.00;100424.13;5063729;28;20158;-54
2023/11/07 00:16:39;;;;;;;12.85;3.85;;;;;;;6.84;100.00;100425.63;5063121;28;20064;-54
2023/11/07 00:19:07;;;;;;;12.23;3.70;;;;;;;6.81;100.00;100437.09;5060471;28;20128;-54
2023/11/07 00:21:36;;;;;;;12.20;3.75;;;;;;;6.81;100.00;100438.88;5071561;28;20407;-55
2023/11/07 00:24:05;;;;;;;13.63;4.00;;;;;;;6.76;100.00;100434.75;5066965;28;20044;-53
2023/11/07 00:26:34;;;;;;;11.68;3.40;;;;;;;6.75;100.00;100443.53;5066749;28;20055;-54
2023/11/07 00:29:02;;;;;;;11.48;3.80;;;;;;;6.74;100.00;100451.44;5057883;28;20056;-53
2023/11/07 00:31:32;;;;;;;12.50;4.20;;;;;;;6.72;100.00;100448.94;5066962;28;20102;-54
2023/11/07 00:34:00;;;;;;;11.30;3.80;;;;;;;6.68;100.00;100455.25;5061129;28;20052;-52
2023/11/07 00:36:29;;;;;;;12.90;3.63;;;;;;;6.67;100.00;100458.78;5067399;28;20532;-52
2023/11/07 00:38:59;;;;;;;10.02;3.33;;;;;;;6.65;100.00;100459.78;5063798;28;20499;-53
2023/11/07 00:41:28;;;;;;;10.23;3.50;;;;;;;6.66;100.00;100458.88;5071607;28;20056;-55
2023/11/07 00:43:56;;;;;;;12.98;3.75;;;;;;;6.62;100.00;100467.81;5072239;28;20123;-53
2023/11/07 00:46:24;;;;;;;11.13;3.70;;;;;;;6.66;100.00;100462.31;5071598;28;20048;-53
2023/11/07 00:48:53;;;;;;;13.45;4.63;;;;;;;6.71;100.00;100462.91;5074720;28;20139;-54
2023/11/07 00:51:22;;;;;;;9.60;3.40;;;;;;;6.67;100.00;100464.00;5072026;28;20048;-54
2023/11/07 00:53:51;;;;;;;10.82;3.10;;;;;;;6.63;100.00;100470.31;5070364;28;20131;-55
2023/11/07 00:56:19;;;;;;;9.65;3.35;;;;;;;6.58;100.00;100462.72;5070818;28;20056;-54
2023/11/07 00:58:50;;;;;;;11.02;3.65;;;;;;;6.56;100.00;100468.97;5062186;28;20044;-54
2023/11/07 01:01:19;;;;;;;10.35;3.38;;;;;;;6.60;100.00;100465.28;5063663;28;20072;-53
2023/11/07 01:03:47;;;;;;;11.13;3.33;;;;;;;6.63;100.00;100470.31;5055221;28;20041;-53
2023/11/07 01:06:17;;;;;;;11.50;3.60;;;;;;;6.64;100.00;100471.16;5053428;28;20079;-54
2023/11/07 01:08:45;;;;;;;10.82;3.42;;;;;;;6.63;100.00;100474.72;5067846;28;20122;-54
2023/11/07 01:11:14;;;;;;;9.98;3.33;;;;;;;6.59;100.00;100474.88;5071534;28;20052;-54
2023/11/07 01:13:43;;;;;;;10.52;3.28;;;;;;;6.57;100.00;100484.56;5072084;28;20053;-53
2023/11/07 01:16:11;;;;;;;11.77;3.15;;;;;;;6.55;100.00;100469.91;5071368;28;20119;-52
2023/11/07 01:18:40;;;;;;;7.65;3.17;;;;;;;6.54;100.00;100479.50;5072710;28;20059;-55
2023/11/07 01:21:09;;;;;;;9.10;3.03;;;;;;;6.55;100.00;100482.97;5075499;28;20120;-54
2023/11/07 01:23:40;;;;;;;10.23;3.10;;;;;;;6.54;100.00;100484.72;5071827;28;20131;-54
2023/11/07 01:26:09;;;;;;;10.40;2.88;;;;;;;6.57;100.00;100487.19;5070686;28;20478;-54
2023/11/07 01:28:38;;;;;;;11.00;3.20;;;;;;;6.55;100.00;100478.56;5072771;28;20040;-54
2023/11/07 01:31:06;;;;;;;9.52;2.95;;;;;;;6.52;100.00;100481.38;5070092;28;20163;-46
2023/11/07 01:33:36;;;;;;;11.52;3.50;;;;;;;6.53;100.00;100490.91;5071218;28;20052;-47
2023/11/07 01:36:05;;;;;;;9.90;3.17;;;;;;;6.53;100.00;100485.66;5073321;28;20038;-48
2023/11/07 01:38:33;;;;;;;9.25;2.90;;;;;;;6.55;100.00;100481.19;5074266;28;20059;-48
2023/11/07 01:41:03;;;;;;;11.07;3.50;;;;;;;6.53;100.00;100485.66;5073318;28;20052;-49
2023/11/07 01:43:31;;;;;;;7.03;2.85;;;;;;;6.55;100.00;100483.81;5070644;28;20444;-52
2023/11/07 01:46:02;;;;;;;11.98;3.08;;;;;;;6.56;100.00;100488.09;5071977;28;20102;-51
2023/11/07 01:48:31;;;;;;;9.57;2.65;;;;;;;6.53;100.00;100485.66;5073880;28;20052;-51
2023/11/07 01:50:59;;;;;;;9.02;2.55;;;;;;;6.52;100.00;100489.19;5070677;28;20076;-48
2023/11/07 01:53:29;;;;;;;8.80;2.58;;;;;;;6.54;100.00;100484.72;5057500;28;20972;-49
2023/11/07 01:55:58;;;;;;;12.88;3.00;;;;;;;6.52;100.00;100494.44;5060133;28;20052;-49
2023/11/07 01:58:28;;;;;;;11.35;3.25;;;;;;;6.49;100.00;100493.72;5066257;28;20045;-49
2023/11/07 02:00:56;;;;;;;7.95;2.90;;;;;;;6.47;100.00;100499.03;5070601;28;20052;-49
2023/11/07 02:03:25;;;;;;;8.95;2.65;;;;;;;6.49;100.00;100499.81;5069618;28;20056;-47
2023/11/07 02:05:54;;;;;;;13.70;3.90;;;;;;;6.49;100.00;100502.44;5069225;28;20388;-46
2023/11/07 02:08:23;;;;;;;10.65;3.10;;;;;;;6.52;100.00;100504.03;5067927;28;20048;-49
2023/11/07 02:10:54;;;;;;;6.35;2.67;;;;;;;6.50;100.00;100501.50;5064711;28;20051;-48
2023/11/07 02:13:22;;;;;;;9.23;2.75;;;;;;;6.50;100.00;100496.25;5056241;28;20045;-48
2023/11/07 02:15:51;;;;;;;8.82;2.75;;;;;;;6.51;100.00;100502.34;5056821;28;20492;-47
2023/11/07 02:18:19;;;;;;;9.80;2.42;;;;;;;6.57;100.00;100492.41;5054271;28;20049;-49
2023/11/07 02:20:48;;;;;;;11.05;3.13;;;;;;;6.60;100.00;100491.41;5069383;28;20048;-46
2023/11/07 02:23:30;;;;;;;7.97;2.70;;;;;;;6.58;100.00;100499.31;5069654;28;20040;-46
2023/11/07 02:25:59;;;;;;;9.48;3.17;;;;;;;6.59;100.00;100490.53;5069470;28;20509;-48
2023/11/07 02:28:27;;;;;;;8.07;2.58;;;;;;;6.58;100.00;100494.06;5069097;28;20408;-47
2023/11/07 02:30:56;;;;;;;8.20;3.17;;;;;;;6.57;100.00;100489.81;5070203;28;20053;-48
2023/11/07 02:33:24;;;;;;;9.30;2.50;;;;;;;6.56;100.00;100487.28;5069256;28;20044;-50
2023/11/07 02:35:53;;;;;;;10.82;3.08;;;;;;;6.54;100.00;100481.28;5069936;28;20045;-48
2023/11/07 02:38:22;;;;;;;11.90;3.03;;;;;;;6.57;100.00;100484.56;5069631;28;20139;-47
2023/11/07 02:40:52;;;;;;;13.50;3.05;;;;;;;6.57;100.00;100492.41;5068565;28;20137;-48
2023/11/07 02:43:20;;;;;;;9.68;2.90;;;;;;;6.55;100.00;100493.41;5069503;28;20040;-47
2023/11/07 02:45:49;;;;;;;10.02;3.10;;;;;;;6.52;100.00;100486.59;5069956;28;20037;-49
2023/11/07 02:48:17;;;;;;;10.10;3.38;;;;;;;6.54;100.00;100487.34;5069094;28;20056;-46
2023/11/07 02:50:45;;;;;;;12.57;2.95;;;;;;;6.51;100.00;100489.28;5069584;28;20052;-46
2023/11/07 02:53:14;;;;;;;11.02;3.08;;;;;;;6.48;100.00;100494.69;5069543;28;20036;-48
2023/11/07 02:55:42;;;;;;;11.15;3.58;;;;;;;6.50;100.00;100493.66;5067163;28;20052;-47
2023/11/07 02:58:13;;;;;;;11.60;3.22;;;;;;;6.48;100.00;100492.06;5062779;28;20041;-46
2023/11/07 03:00:41;;;;;;;10.48;2.85;;;;;;;6.48;100.00;100486.84;5057293;28;20109;-48
2023/11/07 03:03:09;;;;;;;10.48;3.20;;;;;;;6.51;100.00;100497.97;5058342;28;20048;-51
2023/11/07 03:05:38;;;;;;;10.35;3.08;;;;;;;6.50;100.00;100493.66;5067276;28;20040;-48
2023/11/07 03:08:07;;;;;;;11.25;3.38;;;;;;;6.47;100.00;100499.03;5069062;28;20043;-49
2023/11/07 03:10:36;;;;;;;8.40;3.08;;;;;;;6.44;100.00;100491.38;5066640;28;20052;-47
2023/11/07 03:13:04;;;;;;;12.85;3.00;;;;;;;6.43;100.00;100490.56;5064915;28;20045;-49
2023/11/07 03:15:34;;;;;;;10.40;3.15;;;;;;;6.43;100.00;100484.47;5060687;28;20037;-45
2023/11/07 03:18:02;;;;;;;8.68;2.50;;;;;;;6.46;100.00;100484.28;5059489;28;20068;-49
2023/11/07 03:20:32;;;;;;;9.98;3.35;;;;;;;6.47;100.00;100479.94;5066871;28;20667;-47
2023/11/07 03:23:00;;;;;;;8.38;3.20;;;;;;;6.48;100.00;100477.22;5060903;28;20040;-53
2023/11/07 03:25:28;;;;;;;9.38;3.15;;;;;;;6.52;100.00;100480.53;5051026;28;20099;-53
2023/11/07 03:27:57;;;;;;;9.15;2.80;;;;;;;6.50;100.00;100482.38;5051073;28;20080;-53
2023/11/07 03:30:25;;;;;;;9.25;2.92;;;;;;;6.54;100.00;100483.88;5052529;28;20045;-53
2023/11/07 03:32:55;;;;;;;10.07;2.92;;;;;;;6.58;100.00;100488.03;5063173;28;20041;-53
2023/11/07 03:35:26;;;;;;;11.20;3.00;;;;;;;6.57;100.00;100483.72;5053471;28;20484;-55
2023/11/07 03:37:54;;;;;;;12.00;2.90;;;;;;;6.56;100.00;100484.66;5058053;28;20494;-53
2023/11/07 03:40:24;;;;;;;16.75;2.97;;;;;;;6.55;100.00;100488.19;5049578;28;20081;-54
2023/11/07 03:42:52;;;;;;;9.13;3.70;;;;;;;6.56;100.00;100485.50;5058093;28;20519;-54
2023/11/07 03:45:23;;;;;;;8.35;2.70;;;;;;;6.62;100.00;100483.47;5054608;28;20064;-53
2023/11/07 03:47:51;;;;;;;8.73;2.90;;;;;;;6.63;100.00;100490.41;5048944;28;20095;-53
2023/11/07 03:50:22;;;;;;;10.90;3.13;;;;;;;6.63;100.00;100495.63;5057170;28;20040;-54
2023/11/07 03:52:50;;;;;;;8.10;3.00;;;;;;;6.64;100.00;100486.84;5062507;28;20045;-55
2023/11/07 03:55:19;;;;;;;15.00;3.85;;;;;;;6.65;100.00;100496.38;5062618;28;20121;-53
2023/11/07 03:57:47;;;;;;;11.25;3.72;;;;;;;6.64;100.00;100485.09;5056306;28;20044;-56
2023/11/07 04:00:15;;;;;;;10.85;3.65;;;;;;;6.71;100.00;100488.22;5059809;28;20484;-53
2023/11/07 04:02:43;;;;;;;13.02;3.50;;;;;;;6.78;100.00;100497.41;5056155;28;20098;-54
2023/11/07 04:05:12;;;;;;;11.90;4.15;;;;;;;6.79;100.00;100493.00;5060542;28;20102;-55
2023/11/07 04:07:42;;;;;;;9.77;3.40;;;;;;;6.80;100.00;100497.31;5052281;28;20114;-53
2023/11/07 04:10:10;;;;;;;11.43;3.80;;;;;;;6.81;100.00;100493.78;5050858;28;20067;-53
2023/11/07 04:12:38;;;;;;;8.85;3.75;;;;;;;6.81;100.00;100493.78;5058836;28;20045;-53
2023/11/07 04:15:09;;;;;;;13.73;3.83;;;;;;;6.84;100.00;100498.81;5052942;28;20060;-56
2023/11/07 04:17:37;;;;;;;13.55;4.50;;;;;;;6.80;100.00;100505.16;5052911;28;20126;-56
2023/11/07 04:20:09;;;;;;;14.23;4.25;;;;;;;6.81;100.00;100502.44;5052359;28;20062;-54
2023/11/07 04:22:37;;;;;;;13.90;4.22;;;;;;;6.81;100.00;100499.84;5052736;28;20087;-54
2023/11/07 04:25:08;;;;;;;9.90;3.95;;;;;;;6.86;100.00;100504.81;5051040;28;20049;-54
2023/11/07 04:27:36;;;;;;;14.52;4.20;;;;;;;6.87;100.00;100501.25;5052625;28;20132;-52
2023/11/07 04:30:06;;;;;;;12.45;4.72;;;;;;;6.89;100.00;100502.88;5052347;28;20045;-54
2023/11/07 04:32:35;;;;;;;15.82;4.88;;;;;;;6.94;100.00;100506.09;5052596;28;20111;-55
2023/11/07 04:35:06;;;;;;;15.50;4.50;;;;;;;6.92;100.00;100504.47;5052513;28;20037;-55
2023/11/07 04:37:34;;;;;;;12.60;4.38;;;;;;;6.89;100.00;100504.66;5052568;28;20044;-55
2023/11/07 04:40:04;;;;;;;13.00;4.78;;;;;;;6.90;100.00;100501.13;5051117;28;20080;-54
2023/11/07 04:42:34;;;;;;;14.90;4.80;;;;;;;6.86;100.00;100495.22;5052692;28;20070;-53
2023/11/07 04:45:03;;;;;;;10.90;4.10;;;;;;;6.88;100.00;100482.03;5052319;28;20041;-55
2023/11/07 04:47:31;;;;;;;14.02;4.60;;;;;;;6.88;100.00;100490.72;5051937;28;20140;-55
2023/11/07 04:49:59;;;;;;;11.48;4.85;;;;;;;6.87;100.00;100489.06;5052162;28;20810;-54
2023/11/07 04:52:27;;;;;;;11.73;4.75;;;;;;;6.87;100.00;100488.19;5051897;28;20053;-54
2023/11/07 04:54:56;;;;;;;14.75;4.75;;;;;;;6.91;100.00;100485.34;5050561;28;20060;-55
2023/11/07 04:57:24;;;;;;;12.90;5.03;;;;;;;6.91;100.00;100495.81;5051297;28;20075;-54
2023/11/07 04:59:54;;;;;;;14.57;5.63;;;;;;;6.93;100.00;100496.53;5052238;28;20060;-55
2023/11/07 05:02:22;;;;;;;13.18;4.90;;;;;;;6.93;100.00;100495.72;5051430;28;20049;-54
2023/11/07 05:04:51;;;;;;;11.10;4.43;;;;;;;6.91;100.00;100498.41;5051737;28;20118;-55
2023/11/07 05:07:21;;;;;;;14.60;4.97;;;;;;;7.00;100.00;100497.03;5053910;28;20060;-54
2023/11/07 05:09:52;;;;;;;12.98;5.47;;;;;;;7.01;100.00;100500.50;5050703;28;20106;-54
2023/11/07 05:12:20;;;;;;;15.05;5.32;;;;;;;6.97;100.00;100504.22;5052469;28;20041;-54
2023/11/07 05:14:49;;;;;;;13.30;5.10;;;;;;;7.02;100.00;100508.28;5052233;28;20488;-53
2023/11/07 05:17:19;;;;;;;13.85;5.15;;;;;;;7.01;100.00;100505.72;5051078;28;20053;-54
2023/11/07 05:19:47;;;;;;;11.93;5.50;;;;;;;7.08;100.00;100507.09;5053167;28;20049;-56
2023/11/07 05:22:16;;;;;;;12.05;5.53;;;;;;;7.06;100.00;100506.31;5051327;28;20052;-55
2023/11/07 05:24:44;;;;;;;14.32;5.60;;;;;;;7.06;100.00;100503.69;5050328;28;20048;-54
2023/11/07 05:27:12;;;;;;;15.18;5.85;;;;;;;7.09;100.00;100511.41;5052793;28;20045;-54
2023/11/07 05:29:40;;;;;;;16.33;6.13;;;;;;;7.09;100.00;100506.16;5054230;28;20522;-54
2023/11/07 05:32:08;;;;;;;14.35;5.50;;;;;;;7.11;100.00;100512.16;5053200;28;20049;-53
2023/11/07 05:34:39;;;;;;;13.13;5.47;;;;;;;7.12;100.00;100519.06;5050436;28;20049;-55
2023/11/07 05:37:08;;;;;;;15.23;5.93;;;;;;;7.13;100.00;100512.91;5050970;28;20048;-54
2023/11/07 05:39:36;;;;;;;16.13;5.80;;;;;;;7.13;100.00;100519.91;5048488;28;20061;-54
2023/11/07 05:42:07;;;;;;;13.68;6.35;;;;;;;7.15;100.00;100518.88;5051278;28;20542;-54
2023/11/07 05:44:35;;;;;;;16.42;6.50;;;;;;;7.15;100.00;100529.34;5050050;28;20061;-54
2023/11/07 05:47:04;;;;;;;16.90;6.22;;;;;;;7.17;100.00;100531.88;5051143;28;20163;-55
2023/11/07 05:49:33;;;;;;;17.95;6.38;;;;;;;7.18;100.00;100530.94;5051235;28;20045;-54
2023/11/07 05:52:03;;;;;;;16.33;6.90;;;;;;;7.19;100.00;100525.63;5050823;28;20049;-53
2023/11/07 05:54:32;;;;;;;16.23;6.68;;;;;;;7.20;100.00;100522.09;5049428;28;20111;-54
2023/11/07 05:57:00;;;;;;;11.25;6.15;;;;;;;7.24;100.00;100528.84;5053321;28;20056;-55
2023/11/07 05:59:28;;;;;;;16.20;6.60;;;;;;;7.20;100.00;100529.06;5049190;28;20063;-53
2023/11/07 06:01:56;;;;;;;11.60;6.47;;;;;;;7.23;100.00;100529.75;5050889;28;20351;-55
2023/11/07 06:04:32;;;;;;;11.55;6.25;;;;;;;7.21;100.00;100529.03;5050084;28;20048;-54
2023/11/07 06:07:04;;;;;;;13.55;6.60;;;;;;;7.25;100.00;100541.00;5052679;28;20068;-54
2023/11/07 06:09:32;;;;;;;13.07;6.82;;;;;;;7.21;100.00;100533.38;5053452;28;20041;-54
2023/11/07 06:12:00;;;;;;;13.85;7.03;;;;;;;7.21;100.00;100536.88;5053408;28;20041;-54
2023/11/07 06:14:29;;;;;;;15.02;6.60;;;;;;;7.21;100.00;100538.63;5050943;28;20053;-54
2023/11/07 06:16:57;;;;;;;13.43;6.47;;;;;;;7.21;100.00;100543.84;5050625;28;20079;-56
2023/11/07 06:19:25;;;;;;;11.32;6.50;;;;;;;7.23;100.00;100547.25;5051957;28;20037;-54
2023/11/07 06:21:53;;;;;;;14.43;6.95;;;;;;;7.23;100.00;100545.47;5050838;28;20045;-54
2023/11/07 06:24:22;;;;;;;14.23;6.80;;;;;;;7.26;100.00;100544.44;5049041;28;20059;-54
2023/11/07 06:26:51;;;;;;;13.45;6.75;;;;;;;7.28;100.00;100548.66;5053422;28;20045;-54
2023/11/07 06:29:20;;;;;;;13.75;6.47;;;;;;;7.28;100.00;100548.66;5053336;28;20045;-55
2023/11/07 06:31:49;;;;;;;14.93;6.80;;;;;;;7.28;100.00;100546.03;5052829;28;20052;-56
2023/11/07 06:34:17;;;;;;;11.50;6.28;;;;;;;7.28;100.00;100558.28;5053116;28;20048;-55
2023/11/07 06:36:45;;;;;;;17.27;6.75;;;;;;;7.26;100.00;100563.59;5053104;28;20069;-53
2023/11/07 06:39:15;;;;;;;13.23;7.10;;;;;;;7.28;100.00;100566.16;5053244;28;20045;-55
2023/11/07 06:41:45;;;;;;;12.07;6.95;;;;;;;7.28;100.00;100569.59;5052967;28;20049;-54
2023/11/07 06:44:13;;;;;;;12.15;6.13;;;;;;;7.30;100.00;100573.91;5053125;28;20045;-54
2023/11/07 06:46:42;;;;;;;15.68;7.28;;;;;;;7.35;100.00;100572.72;5052923;28;20045;-55
2023/11/07 06:49:10;;;;;;;12.20;6.57;;;;;;;7.37;100.00;100572.63;5052767;28;20522;-53
2023/11/07 06:51:38;;;;;;;16.00;7.43;;;;;;;7.41;100.00;100581.97;5052445;28;20044;-55
2023/11/07 06:54:08;;;;;;;14.88;6.95;;;;;;;7.43;100.00;100577.50;5052515;28;20048;-54
2023/11/07 06:56:37;;;;;;;12.02;6.97;;;;;;;7.43;100.00;100577.50;5051172;28;20466;-53
2023/11/07 06:59:07;;;;;;;16.55;8.02;;;;;;;7.41;100.00;100584.59;5049826;28;20045;-54
2023/11/07 07:01:35;;;;;;;12.38;7.00;;;;;;;7.41;100.00;100581.97;5049859;28;20053;-54
2023/11/07 07:04:05;;;;;;;11.75;6.32;;;;;;;7.43;100.00;100580.09;5049360;28;20098;-54
2023/11/07 07:06:35;;;;;;;12.23;6.53;;;;;;;7.44;100.00;100585.28;5050623;28;20128;-55
2023/11/07 07:09:05;;;;;;;12.75;6.20;;;;;;;7.44;100.00;100579.19;5049069;28;20049;-54
2023/11/07 07:11:33;;;;;;;11.18;6.68;;;;;;;7.45;100.00;100583.50;5049579;28;20515;-54
2023/11/07 07:14:02;;;;;;;18.35;7.05;;;;;;;7.48;100.00;100585.09;5049662;28;20040;-55
2023/11/07 07:16:33;;;;;;;16.23;7.45;;;;;;;7.50;100.00;100583.22;5049244;28;20037;-52
2023/11/07 07:19:06;;;;;;;14.00;7.43;;;;;;;7.47;100.00;100586.84;5049769;28;20542;-53
2023/11/07 07:21:35;;;;;;;16.48;6.50;;;;;;;7.50;100.00;100588.47;5052394;28;20048;-54
2023/11/07 07:24:15;;;;;;;15.40;7.22;;;;;;;7.51;100.00;100596.25;5052097;28;20052;-52
2023/11/07 07:26:46;;;;;;;15.45;6.85;;;;;;;7.52;100.00;100592.69;5050835;28;20053;-53
2023/11/07 07:29:15;;;;;;;14.70;6.85;;;;;;;7.54;100.00;100595.22;5051111;28;20488;-53
2023/11/07 07:31:45;;;;;;;17.55;6.55;;;;;;;7.56;100.00;100591.59;5048952;28;20398;-54
2023/11/07 07:34:13;;;;;;;12.95;6.35;;;;;;;7.63;100.00;100588.63;5048349;28;20063;-56
2023/11/07 07:36:44;;;;;;;15.30;6.88;;;;;;;7.63;100.00;100591.25;5051315;28;20052;-54
2023/11/07 07:39:27;;;;;;;15.70;6.43;;;;;;;7.64;100.00;100588.53;5046800;28;20497;-54
2023/11/07 07:41:57;;;;;;;13.45;6.20;;;;;;;7.63;100.00;100596.47;5049082;28;20059;-53
2023/11/07 07:44:26;;;;;;;11.80;6.32;;;;;;;7.63;100.00;100594.69;5051811;28;20511;-54
2023/11/07 07:46:56;;;;;;;16.23;6.78;;;;;;;7.61;100.00;100596.56;5051763;28;20048;-54
2023/11/07 07:49:25;;;;;;;13.75;6.10;;;;;;;7.63;100.00;100602.56;5047293;28;20523;-54
2023/11/07 07:51:54;;;;;;;11.57;6.72;;;;;;;7.63;100.00;100606.94;5049377;28;20053;-54
2023/11/07 07:54:23;;;;;;;13.18;6.30;;;;;;;7.65;100.00;100610.31;5049612;28;20071;-55
2023/11/07 07:56:54;;;;;;;11.10;5.95;;;;;;;7.69;100.00;100620.53;5049164;28;20045;-54
2023/11/07 07:59:24;;;;;;;13.40;5.90;;;;;;;7.69;100.00;100617.91;5047994;28;20048;-53
2023/11/07 08:01:55;;;;;;;10.40;5.65;;;;;;;7.71;100.00;100620.44;5048383;28;20063;-53
2023/11/07 08:04:26;;;;;;;11.70;6.47;;;;;;;7.70;100.00;100630.09;5046663;28;20522;-53
2023/11/07 08:06:55;;;;;;;10.07;6.35;;;;;;;7.73;100.00;100624.66;5048856;28;20053;-53
2023/11/07 08:09:23;;;;;;;11.57;6.10;;;;;;;7.76;100.00;100626.28;5049659;28;20044;-54
2023/11/07 08:11:56;;;;;;;11.30;5.75;;;;;;;7.81;100.00;100626.84;5049670;28;20044;-56
2023/11/07 08:14:24;;;;;;;13.25;5.75;;;;;;;7.84;100.00;100625.81;5048099;28;20056;-54
2023/11/07 08:16:52;;;;;;;11.23;6.20;;;;;;;7.86;100.00;100631.81;5048889;28;20504;-54
2023/11/07 08:19:22;;;;;;;10.45;5.45;;;;;;;7.95;100.00;100629.50;5047622;28;20049;-54
2023/11/07 08:21:52;;;;;;;12.10;5.50;;;;;;;7.98;100.00;100640.75;5048694;28;20443;-54
2023/11/07 08:24:20;;;;;;;11.25;5.10;;;;;;;8.00;100.00;100633.66;5046680;28;20049;-53
2023/11/07 08:26:48;;;;;;;10.75;5.18;;;;;;;7.98;100.00;100638.16;5048364;28;20508;-54
2023/11/07 08:29:16;;;;;;;12.00;5.45;;;;;;;8.05;100.00;100644.72;5051250;28;20114;-55
2023/11/07 08:31:44;;;;;;;12.52;5.00;;;;;;;8.12;100.00;100640.78;5049945;28;21139;-53
2023/11/07 08:34:12;;;;;;;8.30;4.90;;;;;;;8.17;100.00;100653.63;5049812;28;20556;-54
2023/11/07 08:36:41;;;;;;;13.10;6.05;;;;;;;8.12;100.00;100654.72;5048717;28;20400;-53
2023/11/07 08:39:29;;;;;;;9.52;5.47;;;;;;;8.12;100.00;100664.38;5050223;28;20056;-53
2023/11/07 08:41:58;;;;;;;9.63;5.10;;;;;;;8.17;100.00;100662.34;5049462;28;20072;-53
2023/11/07 08:44:26;;;;;;;11.60;5.07;;;;;;;8.19;100.00;100662.25;5048141;28;20063;-55
2023/11/07 08:46:54;;;;;;;10.57;4.93;;;;;;;8.24;100.00;100670.69;5048301;28;20388;-53
2023/11/07 08:49:22;;;;;;;12.52;5.00;;;;;;;8.28;100.00;100664.31;5047400;28;20032;-51
2023/11/07 08:51:51;;;;;;;13.75;5.45;;;;;;;8.32;100.00;100675.47;5048087;28;20443;-54
2023/11/07 08:54:21;;;;;;;11.60;4.70;;;;;;;8.33;100.00;100672.78;5047294;28;20083;-59
2023/11/07 08:56:51;;;;;;;9.07;4.20;;;;;;;8.37;100.00;100662.94;5052314;28;20114;-54
2023/11/07 08:59:19;;;;;;;9.70;4.47;;;;;;;8.42;100.00;100674.81;5052389;28;20098;-56
2023/11/07 09:01:47;;;;;;;11.65;4.80;;;;;;;8.49;100.00;100669.28;5052116;28;20064;-52
2023/11/07 09:04:16;;;;;;;9.38;4.43;;;;;;;8.56;100.00;100671.44;5053374;28;20052;-53
2023/11/07 09:06:44;;;;;;;10.32;4.57;;;;;;;8.59;100.00;100676.50;5054561;28;20106;-53
2023/11/07 09:09:14;;;;;;;7.45;4.03;;;;;;;8.66;100.00;100678.75;5054635;28;20045;-53
2023/11/07 09:11:45;;;;;;;9.02;4.30;;;;;;;8.74;100.00;100676.50;5053535;28;20244;-54
2023/11/07 09:14:16;;;;;;;10.52;4.00;;;;;;;8.76;100.00;100687.75;5051222;28;20566;-55
2023/11/07 09:16:46;;;;;;;9.57;4.38;;;;;;;8.89;100.00;100693.97;5051431;28;20443;-54
2023/11/07 09:19:15;;;;;;;10.50;3.70;;;;;;;8.99;100.00;100693.41;5050801;28;20049;-55
2023/11/07 09:21:43;;;;;;;9.00;3.90;;;;;;;9.01;100.00;100687.09;5050335;28;20515;-55
2023/11/07 09:24:11;;;;;;;10.02;4.10;;;;;;;8.94;100.00;100689.28;5049323;28;20060;-52
2023/11/07 09:26:40;;;;;;;10.43;3.72;;;;;;;8.99;100.00;100696.03;5051121;28;20460;-55
2023/11/07 09:29:09;;;;;;;7.47;3.35;;;;;;;9.04;100.00;100686.94;5051055;28;20068;-52
2023/11/07 09:31:38;;;;;;;10.38;3.58;;;;;;;9.06;100.00;100690.28;5051747;28;20051;-54
2023/11/07 09:34:08;;;;;;;8.20;3.22;;;;;;;9.05;100.00;100693.88;5050856;28;20126;-54
2023/11/07 09:36:38;;;;;;;9.93;3.50;;;;;;;9.12;100.00;100703.06;5052415;28;20423;-54
2023/11/07 09:39:07;;;;;;;8.35;3.67;;;;;;;9.14;100.00;100701.16;5051604;28;20116;-54
2023/11/07 09:41:39;;;;;;;7.63;3.42;;;;;;;9.28;100.00;100699.47;5051218;28;20049;-52
2023/11/07 09:44:10;;;;;;;10.00;3.85;;;;;;;9.40;100.00;100698.72;5050960;28;20231;-55
2023/11/07 09:46:40;;;;;;;8.85;3.40;;;;;;;9.53;100.00;100703.19;5051125;28;20067;-55
2023/11/07 09:49:09;;;;;;;8.57;3.30;;;;;;;9.52;100.00;100706.78;5050248;28;20141;-53
2023/11/07 09:51:38;;;;;;;7.05;3.80;;;;;;;9.51;100.00;100705.91;5052120;28;20053;-54
2023/11/07 09:54:07;;;;;;;7.90;3.60;;;;;;;9.53;100.00;100711.91;5049593;28;20045;-53
2023/11/07 09:56:40;;;;;;;;;;;;;;;9.52;100.00;100704.97;5050911;28;20124;-54
2023/11/07 09:59:19;;;;;;;8.88;3.80;;;;;;;9.55;100.00;100706.56;5050440;28;20303;-54
2023/11/07 10:01:49;;;;;;;9.10;3.90;;;;;;;9.67;100.00;100704.94;5052241;28;20115;-56
2023/11/07 10:04:20;;;;;;;9.75;3.58;;;;;;;9.67;100.00;100702.31;5053631;28;20127;-54
2023/11/07 10:06:49;;;;;;;8.48;3.88;;;;;;;9.72;100.00;100708.13;5053055;28;20431;-53
2023/11/07 10:09:17;;;;;;;8.20;3.40;;;;;;;9.72;100.00;100702.88;5048619;28;20102;-53
2023/11/07 10:11:49;;;;;;;8.18;3.72;;;;;;;9.72;100.00;100702.88;5050856;28;20048;-55
2023/11/07 10:14:18;;;;;;;7.75;3.58;;;;;;;9.79;100.00;100698.91;5051936;28;20055;-55
2023/11/07 10:16:52;;;;;;;7.00;3.35;;;;;;;9.81;100.00;100702.28;5050341;28;20063;-55
2023/11/07 10:19:22;;;;;;;9.10;3.55;;;;;;;9.89;100.00;100710.50;5049753;28;20076;-56
2023/11/07 10:21:51;;;;;;;10.05;3.53;;;;;;;9.92;100.00;100710.31;5050098;28;20500;-54
2023/11/07 10:24:21;;;;;;;8.38;3.80;;;;;;;9.94;100.00;100713.69;5048043;28;20049;-53
2023/11/07 10:26:53;;;;;;;7.35;3.17;;;;;;;10.02;100.00;100702.69;5048756;28;20057;-56
2023/11/07 10:29:30;;;;;;;8.75;3.30;;;;;;;10.06;100.00;100709.44;5049808;28;20088;-54
2023/11/07 10:32:02;;;;;;;6.70;3.05;;;;;;;10.13;100.00;100713.34;5050033;28;20586;-55
2023/11/07 10:34:31;;;;;;;7.68;3.33;;;;;;;10.29;100.00;100710.56;5049684;28;20080;-53
2023/11/07 10:37:00;;;;;;;7.18;3.30;;;;;;;10.59;100.00;100717.38;5048812;28;20601;-55
2023/11/07 10:39:30;;;;;;;11.10;2.88;;;;;;;10.92;100.00;100713.41;5050827;28;20064;-55
2023/11/07 10:42:16;;;;;;;6.88;3.00;;;;;;;11.09;100.00;100712.22;5053113;28;20049;-54
2023/11/07 10:44:45;;;;;;;8.48;3.42;;;;;;;11.48;100.00;100710.38;5052589;28;20072;-56
2023/11/07 10:47:16;;;;;;;8.57;2.72;;;;;;;11.58;100.00;100717.63;5049328;28;20136;-56
2023/11/07 10:49:45;;;;;;;6.03;2.50;;;;;;;12.12;100.00;100708.47;5049358;28;20052;-55
2023/11/07 10:52:13;;;;;;;5.78;2.58;;;;;;;12.24;100.00;100709.38;5051476;28;20052;-56
2023/11/07 10:54:42;;;;;;;5.85;1.90;;;;;;;12.28;100.00;100706.38;5051448;28;20052;-57
2023/11/07 10:57:12;;;;;;;6.57;2.45;;;;;;;12.49;100.00;100709.22;5049182;28;20044;-56
2023/11/07 10:59:45;;;;;;;7.30;2.70;;;;;;;12.87;100.00;100709.03;5050227;28;20041;-55
2023/11/07 11:02:17;;;;;;;5.85;2.22;;;;;;;13.07;100.00;100710.97;5051116;28;20412;-56
2023/11/07 11:04:50;;;;;;;6.28;2.05;;;;;;;12.87;100.00;100707.25;5049327;28;20044;-55
2023/11/07 11:07:19;;;;;;;6.90;2.42;;;;;;;12.80;100.00;100714.81;5049137;28;20061;-56
2023/11/07 11:09:49;;;;;;;7.85;2.22;;;;;;;12.79;100.00;100715.75;5048120;28;20060;-55
2023/11/07 11:12:21;;;;;;;7.85;2.50;;;;;;;12.81;100.00;100713.00;5048978;28;20534;-55
2023/11/07 11:14:50;;;;;;;7.13;2.53;;;;;;;12.77;100.00;100711.56;5049367;28;20129;-57
2023/11/07 11:17:32;;;;;;;5.28;2.38;;;;;;;12.84;100.00;100710.13;5047863;28;20119;-56
2023/11/07 11:20:11;;;;;;;8.73;2.20;;;;;;;12.88;100.00;100714.19;5048756;28;20511;-56
2023/11/07 11:22:48;;;;;;;6.45;2.08;;;;;;;13.06;100.00;100705.81;5049180;28;20103;-54
2023/11/07 11:25:27;;;;;;;9.90;2.60;;;;;;;12.95;100.00;100702.22;5047122;28;20041;-54
2023/11/07 11:28:01;;;;;;;5.45;2.00;;;;;;;12.99;100.00;100698.41;5049169;28;20056;-55
2023/11/07 11:30:32;;;;;;;8.18;2.33;;;;;;;12.99;100.00;100698.41;5048887;28;20119;-54